Погода Кампанана 2 недели

Буэнос-Айрес, Аргентина

04 - 16 марта
  • 04марта
    Сегодня
    +14°
    +26°
    Ясно и безоблачно
    ВремяПогодаТемператураВлажностьДавлениеВетер, м/сВероятность осадков
    00:00Ясно и безоблачно+17°C77 %764 мм2.3 м/с5 %
    03:00Практически безоблачно+17°C70 %764 мм1.7 м/с5 %
    06:00Практически безоблачно+15°C80 %764 мм1.5 м/с5 %
    09:00Небольшая облачность+19°C68 %764 мм0.7 м/с5 %
    12:00Небольшая облачность+23°C47 %764 мм1.2 м/с5 %
    15:00Ясно и безоблачно+25°C42 %763 мм2.9 м/с5 %
    18:00Ясно и безоблачно+25°C49 %762 мм3.2 м/с5 %
    21:00Ясно и безоблачно+20°C73 %763 мм2.3 м/с5 %
  • 05марта
    Вторник
    +14°
    +26°
    Ясно и безоблачно
    ВремяПогодаТемператураВлажностьДавлениеВетер, м/сВероятность осадков
    00:00Ясно и безоблачно+18°C74 %764 мм2.2 м/с5 %
    03:00Ясно и безоблачно+15°C84 %764 мм2.4 м/с5 %
    06:00Ясно и безоблачно+15°C82 %765 мм3.1 м/с5 %
    09:00Ясно и безоблачно+17°C70 %765 мм2.7 м/с5 %
    12:00Ясно и безоблачно+22°C52 %765 мм1.7 м/с5 %
    15:00Ясно и безоблачно+25°C49 %763 мм1.8 м/с5 %
    18:00Ясно и безоблачно+25°C51 %762 мм2.5 м/с5 %
    21:00Ясно и безоблачно+21°C72 %762 мм2.0 м/с5 %
  • 06марта
    Среда
    +16°
    +28°
    Практически безоблачно
    ВремяПогодаТемператураВлажностьДавлениеВетер, м/сВероятность осадков
    00:00Ясно и безоблачно+17°C87 %762 мм2.2 м/с5 %
    03:00Ясно и безоблачно+16°C90 %762 мм2.5 м/с5 %
    06:00Ясно и безоблачно+15°C91 %762 мм1.9 м/с5 %
    09:00Ясно и безоблачно+19°C78 %763 мм2.6 м/с5 %
    12:00Ясно и безоблачно+25°C56 %762 мм3.6 м/с5 %
    15:00Практически безоблачно+27°C50 %761 мм2.7 м/с5 %
    18:00Ясно и безоблачно+27°C52 %760 мм3.7 м/с5 %
    21:00Ясно и безоблачно+22°C66 %761 мм2.6 м/с5 %
  • 07марта
    Четверг
    +18°
    +30°
    Ясно и безоблачно
    ВремяПогодаТемператураВлажностьДавлениеВетер, м/сВероятность осадков
    00:00Ясно и безоблачно+20°C79 %761 мм2.9 м/с5 %
    03:00Ясно и безоблачно+19°C77 %761 мм3.6 м/с5 %
    06:00Ясно и безоблачно+17°C84 %761 мм2.5 м/с5 %
    09:00Ясно и безоблачно+20°C76 %762 мм3.4 м/с4 %
    12:00Ясно и безоблачно+26°C58 %761 мм3.9 м/с5 %
    15:00Ясно и безоблачно+29°C51 %760 мм3.6 м/с5 %
    18:00Ясно и безоблачно+29°C51 %759 мм3.5 м/с5 %
    21:00Ясно и безоблачно+23°C71 %759 мм2.4 м/с5 %
Мы используем cookies
Соглашаюсь